Time;durP1;ratioP1;P1;durP2;ratioP2;P2;SDS_P1;SDS_P2;PMS_P1;PMS_P2;Temp;Humidity;BMP_temperature;BMP_pressure;BME280_temperature;BME280_humidity;BME280_pressure;Samples;Min_cycle;Max_cycle;Signal;HPM_P1;HPM_P2
2023/07/10 00:01:29;;;;;;;4.60;2.58;;;14.20;99.90;;;;;;5079854;28;20051;-64
2023/07/10 00:03:56;;;;;;;3.03;2.30;;;14.10;99.90;;;;;;5075412;28;20035;-65
2023/07/10 00:06:23;;;;;;;5.82;2.88;;;14.10;99.90;;;;;;5077368;28;20109;-63
2023/07/10 00:08:50;;;;;;;2.90;2.63;;;14.00;99.90;;;;;;5080617;28;20048;-64
2023/07/10 00:11:28;;;;;;;2.22;2.00;;;14.00;99.90;;;;;;5076907;28;20076;-64
2023/07/10 00:13:56;;;;;;;2.70;2.42;;;14.00;99.90;;;;;;5077702;28;20048;-64
2023/07/10 00:16:24;;;;;;;3.20;2.50;;;13.90;99.90;;;;;;5080379;28;20063;-63
2023/07/10 00:18:52;;;;;;;2.38;2.03;;;13.90;99.90;;;;;;5075711;28;20430;-63
2023/07/10 00:21:18;;;;;;;3.33;2.45;;;13.90;99.90;;;;;;5078177;28;20093;-64
2023/07/10 00:23:46;;;;;;;3.13;2.67;;;13.90;99.90;;;;;;5076735;28;20051;-63
2023/07/10 00:26:22;;;;;;;4.28;2.85;;;13.90;99.90;;;;;;5079893;28;20122;-63
2023/07/10 00:28:50;;;;;;;3.78;2.88;;;13.90;99.90;;;;;;5065673;28;20079;-63
2023/07/10 00:31:17;;;;;;;4.32;3.22;;;13.80;99.90;;;;;;5074998;28;20125;-65
2023/07/10 00:33:47;;;;;;;3.53;2.75;;;13.80;99.90;;;;;;5076308;28;20045;-63
2023/07/10 00:36:33;;;;;;;4.13;2.70;;;13.70;99.90;;;;;;5071533;28;20043;-64
2023/07/10 00:39:20;;;;;;;3.28;2.83;;;13.70;99.90;;;;;;5076842;28;20102;-66
2023/07/10 00:42:01;;;;;;;2.47;2.28;;;13.60;99.90;;;;;;5073531;28;20040;-64
2023/07/10 00:44:35;;;;;;;4.43;3.10;;;13.60;99.90;;;;;;5076076;28;20059;-63
2023/07/10 00:47:27;;;;;;;4.00;2.53;;;13.60;99.90;;;;;;5071115;28;20060;-64
2023/07/10 00:50:05;;;;;;;3.38;3.08;;;13.50;99.90;;;;;;5075026;28;20044;-63
2023/07/10 00:52:37;;;;;;;3.22;2.95;;;13.50;99.90;;;;;;5078702;28;20203;-63
2023/07/10 00:55:28;;;;;;;3.58;2.22;;;13.40;99.90;;;;;;5075855;28;20044;-63
2023/07/10 00:58:15;;;;;;;2.78;2.28;;;13.40;99.90;;;;;;5075776;28;20040;-63
2023/07/10 01:01:05;;;;;;;6.37;3.83;;;13.30;99.90;;;;;;5072786;28;20081;-64
2023/07/10 01:03:34;;;;;;;3.20;2.90;;;13.30;99.90;;;;;;5074062;28;20040;-63
2023/07/10 01:06:24;;;;;;;3.03;2.70;;;13.30;99.90;;;;;;5076943;28;20076;-63
2023/07/10 01:09:05;;;;;;;3.80;3.17;;;13.30;99.90;;;;;;5077641;28;20048;-64
2023/07/10 01:11:34;;;;;;;2.70;2.50;;;13.20;99.90;;;;;;5065338;28;20602;-63
2023/07/10 01:14:04;;;;;;;2.70;2.50;;;13.20;99.90;;;;;;5072598;28;20052;-63
2023/07/10 01:16:32;;;;;;;7.00;3.97;;;13.20;99.90;;;;;;5073693;28;20040;-64
2023/07/10 01:18:59;;;;;;;3.25;2.00;;;13.20;99.90;;;;;;5060338;28;20101;-64
2023/07/10 01:21:32;;;;;;;5.50;3.22;;;13.10;99.90;;;;;;5055808;28;20044;-63
2023/07/10 01:24:02;;;;;;;2.80;2.60;;;13.10;99.90;;;;;;5076235;28;20044;-63
2023/07/10 01:26:30;;;;;;;4.30;1.98;;;13.00;99.90;;;;;;5075573;28;20052;-64
2023/07/10 01:28:58;;;;;;;2.97;2.28;;;13.00;99.90;;;;;;5072022;28;20313;-64
2023/07/10 01:31:27;;;;;;;5.05;3.28;;;13.00;99.90;;;;;;5069842;28;20126;-64
2023/07/10 01:34:05;;;;;;;2.75;2.47;;;13.00;99.90;;;;;;5076163;28;20041;-63
2023/07/10 01:36:37;;;;;;;5.65;2.60;;;12.90;99.90;;;;;;5057291;28;20511;-63
2023/07/10 01:39:10;;;;;;;3.25;2.42;;;12.90;99.90;;;;;;5070960;28;20033;-64
2023/07/10 01:41:40;;;;;;;2.17;1.98;;;12.90;99.90;;;;;;5076245;28;20052;-64
2023/07/10 01:44:32;;;;;;;2.33;1.90;;;12.90;99.90;;;;;;5075260;28;20262;-64
2023/07/10 01:47:00;;;;;;;2.88;2.25;;;12.80;99.90;;;;;;5074184;28;20094;-65
2023/07/10 01:49:35;;;;;;;4.80;2.45;;;12.80;99.90;;;;;;5073686;28;20032;-64
2023/07/10 01:52:06;;;;;;;3.15;2.17;;;12.80;99.90;;;;;;5077442;28;20068;-63
2023/07/10 01:54:33;;;;;;;;;;;12.80;99.90;;;;;;5069480;28;20052;-63
2023/07/10 01:57:00;;;;;;;2.70;2.20;;;12.80;99.90;;;;;;5051853;28;20015;-65
2023/07/10 01:59:27;;;;;;;1.98;1.77;;;12.80;99.90;;;;;;5059139;28;20902;-64
2023/07/10 02:01:55;;;;;;;2.35;2.15;;;12.80;99.90;;;;;;5057584;28;20079;-63
2023/07/10 02:04:23;;;;;;;4.07;1.92;;;12.80;99.90;;;;;;5077289;28;20085;-63
2023/07/10 02:06:50;;;;;;;4.30;2.83;;;12.90;99.90;;;;;;5055612;28;20382;-64
2023/07/10 02:09:17;;;;;;;2.75;2.55;;;12.90;99.90;;;;;;5075593;28;20079;-63
2023/07/10 02:11:44;;;;;;;3.72;2.40;;;12.90;99.90;;;;;;5053402;28;20549;-63
2023/07/10 02:14:11;;;;;;;2.38;1.83;;;13.00;99.90;;;;;;5076679;28;20048;-64
2023/07/10 02:16:38;;;;;;;5.20;3.05;;;13.00;99.90;;;;;;5079642;28;20040;-63
2023/07/10 02:19:05;;;;;;;2.58;2.25;;;13.00;99.90;;;;;;5079361;28;20055;-63
2023/07/10 02:21:32;;;;;;;2.22;1.85;;;13.00;99.90;;;;;;5078181;28;20028;-63
2023/07/10 02:24:00;;;;;;;3.65;1.65;;;13.00;99.90;;;;;;5077248;28;20045;-64
2023/07/10 02:26:28;;;;;;;2.55;2.35;;;13.00;99.90;;;;;;5072663;28;20159;-63
2023/07/10 02:28:57;;;;;;;2.33;2.13;;;13.00;99.90;;;;;;5077158;28;20499;-65
2023/07/10 02:31:25;;;;;;;2.35;2.15;;;13.00;99.90;;;;;;5077719;28;20043;-64
2023/07/10 02:33:52;;;;;;;3.17;2.60;;;13.00;99.90;;;;;;5079938;28;20152;-64
2023/07/10 02:36:21;;;;;;;3.67;2.40;;;13.00;99.90;;;;;;5071644;28;20036;-65
2023/07/10 02:38:48;;;;;;;3.40;1.38;;;13.00;99.90;;;;;;5078770;28;20060;-64
2023/07/10 02:41:16;;;;;;;2.60;2.28;;;13.00;99.90;;;;;;5079004;28;20132;-63
2023/07/10 02:43:43;;;;;;;1.30;1.20;;;13.00;99.90;;;;;;5064778;28;20766;-64
2023/07/10 02:46:10;;;;;;;1.70;1.60;;;13.00;99.90;;;;;;5081493;28;20048;-64
2023/07/10 02:48:37;;;;;;;1.52;1.30;;;13.10;99.90;;;;;;5075692;28;20072;-65
2023/07/10 02:51:04;;;;;;;1.70;1.60;;;13.10;99.90;;;;;;5076394;28;20844;-64
2023/07/10 02:53:31;;;;;;;1.15;1.05;;;13.10;99.90;;;;;;5077482;28;20055;-64
2023/07/10 02:55:58;;;;;;;3.67;2.15;;;13.10;99.90;;;;;;5081057;28;20043;-64
2023/07/10 02:58:25;;;;;;;1.77;1.60;;;13.20;99.90;;;;;;5078387;28;20040;-63
2023/07/10 03:00:57;;;;;;;2.45;2.10;;;13.20;99.90;;;;;;5077714;28;20044;-63
2023/07/10 03:03:25;;;;;;;2.75;1.83;;;13.20;99.90;;;;;;5075139;28;20040;-63
2023/07/10 03:05:53;;;;;;;1.40;1.30;;;13.30;99.90;;;;;;5078035;28;20423;-63
2023/07/10 03:08:20;;;;;;;2.03;1.10;;;13.30;99.90;;;;;;5066463;28;20067;-63
2023/07/10 03:10:47;;;;;;;1.05;0.90;;;13.40;99.90;;;;;;5079907;28;20386;-63
2023/07/10 03:13:14;;;;;;;1.20;1.10;;;13.40;99.90;;;;;;5079036;28;20397;-64
2023/07/10 03:15:41;;;;;;;1.20;0.93;;;13.50;99.90;;;;;;5077150;28;20238;-63
2023/07/10 03:18:08;;;;;;;1.48;1.38;;;13.50;99.90;;;;;;5071474;28;20037;-63
2023/07/10 03:20:39;;;;;;;1.23;0.95;;;13.60;99.90;;;;;;5058802;28;20048;-65
2023/07/10 03:23:06;;;;;;;1.77;1.08;;;13.60;99.90;;;;;;5078304;28;20056;-63
2023/07/10 03:25:33;;;;;;;1.63;1.23;;;13.60;99.90;;;;;;5081044;28;20036;-63
2023/07/10 03:28:00;;;;;;;1.85;1.05;;;13.60;99.90;;;;;;5081700;28;20055;-63
2023/07/10 03:30:27;;;;;;;1.52;1.00;;;13.70;99.90;;;;;;5077843;28;20131;-64
2023/07/10 03:32:54;;;;;;;1.98;1.35;;;13.70;99.90;;;;;;5073994;28;20048;-63
2023/07/10 03:35:21;;;;;;;0.98;0.90;;;13.80;99.90;;;;;;5073325;28;20044;-64
2023/07/10 03:37:48;;;;;;;1.70;0.93;;;13.90;99.90;;;;;;5078925;28;20040;-64
2023/07/10 03:40:15;;;;;;;1.77;1.02;;;13.90;99.90;;;;;;5080259;28;20127;-63
2023/07/10 03:42:41;;;;;;;0.45;0.45;;;13.90;99.90;;;;;;5072794;28;20048;-63
2023/07/10 03:45:09;;;;;;;1.20;1.00;;;13.90;99.90;;;;;;5072469;28;20138;-63
2023/07/10 03:47:36;;;;;;;1.08;0.98;;;14.00;99.90;;;;;;5080123;28;20092;-64
2023/07/10 03:50:03;;;;;;;1.02;0.60;;;14.00;99.90;;;;;;5081140;28;20040;-64
2023/07/10 03:52:30;;;;;;;3.70;1.50;;;14.10;99.90;;;;;;5076466;28;20074;-63
2023/07/10 03:54:57;;;;;;;1.08;0.68;;;14.10;99.90;;;;;;5076914;28;20044;-64
2023/07/10 03:57:24;;;;;;;1.40;1.30;;;14.20;99.90;;;;;;5076980;28;20036;-65
2023/07/10 03:59:51;;;;;;;1.13;1.02;;;14.30;99.90;;;;;;5075880;28;20040;-63
2023/07/10 04:02:17;;;;;;;0.90;0.90;;;14.30;99.90;;;;;;5076307;28;20071;-64
2023/07/10 04:04:44;;;;;;;1.70;1.20;;;14.40;99.90;;;;;;5078427;28;20560;-63
2023/07/10 04:07:11;;;;;;;0.73;0.70;;;14.50;99.90;;;;;;5077441;28;20450;-70
2023/07/10 04:09:38;;;;;;;2.78;0.93;;;14.50;99.90;;;;;;5074435;28;20056;-63
2023/07/10 04:12:05;;;;;;;4.10;1.67;;;14.60;99.90;;;;;;5075137;28;20222;-63
2023/07/10 04:14:36;;;;;;;1.95;0.70;;;14.60;99.90;;;;;;5074959;28;20133;-63
2023/07/10 04:17:06;;;;;;;1.90;1.17;;;14.70;99.90;;;;;;5078645;28;20414;-64
2023/07/10 04:19:33;;;;;;;0.65;0.65;;;14.70;99.90;;;;;;5077845;28;20047;-63
2023/07/10 04:22:00;;;;;;;1.23;0.80;;;14.80;99.90;;;;;;5074960;28;20080;-65
2023/07/10 04:24:27;;;;;;;3.30;0.88;;;14.80;99.90;;;;;;5075829;28;20403;-64
2023/07/10 04:26:54;;;;;;;0.70;0.70;;;14.90;99.90;;;;;;5075544;28;20129;-63
2023/07/10 04:29:21;;;;;;;1.48;0.98;;;15.00;99.90;;;;;;5074355;28;20093;-63
2023/07/10 04:31:47;;;;;;;1.20;1.10;;;15.10;99.90;;;;;;5075335;28;20098;-65
2023/07/10 04:34:14;;;;;;;1.20;0.75;;;15.10;99.90;;;;;;5075752;28;20040;-63
2023/07/10 04:36:42;;;;;;;2.78;1.20;;;15.20;99.90;;;;;;5071214;28;20124;-64
2023/07/10 04:39:10;;;;;;;0.90;0.90;;;15.20;99.90;;;;;;5073806;28;20086;-63
2023/07/10 04:41:38;;;;;;;1.25;0.60;;;15.30;99.90;;;;;;5077895;28;20436;-64
2023/07/10 04:44:05;;;;;;;4.05;1.20;;;15.40;99.90;;;;;;5074667;28;20098;-63
2023/07/10 04:46:32;;;;;;;0.77;0.57;;;15.50;99.90;;;;;;5076867;28;20188;-63
2023/07/10 04:49:01;;;;;;;1.25;0.95;;;15.50;99.90;;;;;;5073387;28;20040;-64
2023/07/10 04:51:28;;;;;;;2.15;0.63;;;15.60;99.90;;;;;;5078686;28;20067;-63
2023/07/10 04:53:54;;;;;;;0.82;0.70;;;15.70;99.90;;;;;;5076673;28;20539;-64
2023/07/10 04:56:21;;;;;;;1.80;0.68;;;15.80;99.90;;;;;;5072708;28;20467;-63
2023/07/10 04:58:54;;;;;;;0.95;0.95;;;15.80;99.90;;;;;;5076326;28;20551;-64
2023/07/10 05:01:24;;;;;;;0.70;0.63;;;15.80;99.90;;;;;;5073348;28;20040;-63
2023/07/10 05:03:51;;;;;;;0.77;0.75;;;16.00;99.90;;;;;;5073911;28;20044;-64
2023/07/10 05:06:19;;;;;;;1.13;0.93;;;16.10;99.90;;;;;;5074049;28;20098;-64
2023/07/10 05:08:46;;;;;;;0.73;0.70;;;16.10;99.90;;;;;;5075476;28;20126;-64
2023/07/10 05:11:15;;;;;;;0.85;0.85;;;16.20;99.90;;;;;;5072160;28;20113;-65
2023/07/10 05:13:42;;;;;;;0.75;0.73;;;16.30;99.90;;;;;;5074186;28;20181;-64
2023/07/10 05:16:09;;;;;;;2.13;0.82;;;16.30;99.90;;;;;;5072689;28;20075;-64
2023/07/10 05:18:36;;;;;;;1.23;0.93;;;16.40;99.90;;;;;;5077451;28;20038;-63
2023/07/10 05:21:03;;;;;;;1.80;1.65;;;16.40;99.90;;;;;;5077872;28;20095;-64
2023/07/10 05:23:30;;;;;;;1.15;0.63;;;16.40;99.90;;;;;;5074718;28;20530;-64
2023/07/10 05:26:09;;;;;;;1.52;0.65;;;16.50;99.90;;;;;;5072982;28;20047;-64
2023/07/10 05:28:37;;;;;;;1.30;1.00;;;16.60;99.90;;;;;;5071754;28;20052;-63
2023/07/10 05:31:06;;;;;;;0.93;0.82;;;16.60;99.90;;;;;;5073802;28;20094;-64
2023/07/10 05:33:33;;;;;;;1.20;1.10;;;16.70;99.90;;;;;;5078244;28;20043;-64
2023/07/10 05:36:03;;;;;;;1.25;1.00;;;16.70;99.90;;;;;;5072973;28;20106;-65
2023/07/10 05:38:33;;;;;;;0.80;0.80;;;16.70;99.90;;;;;;5072359;28;20122;-64
2023/07/10 05:41:01;;;;;;;1.35;0.90;;;16.80;99.90;;;;;;5075457;28;20045;-64
2023/07/10 05:43:29;;;;;;;0.75;0.60;;;16.80;99.90;;;;;;5076973;28;20137;-65
2023/07/10 05:45:56;;;;;;;0.95;0.85;;;16.90;99.90;;;;;;5074284;28;20040;-63
2023/07/10 05:48:23;;;;;;;1.25;0.90;;;16.90;99.90;;;;;;5077035;28;20049;-63
2023/07/10 05:50:50;;;;;;;1.13;0.98;;;17.00;99.90;;;;;;5081829;28;20434;-65
2023/07/10 05:53:18;;;;;;;0.95;0.73;;;17.00;99.90;;;;;;5080309;28;20063;-64
2023/07/10 05:55:47;;;;;;;1.58;0.95;;;17.10;99.90;;;;;;5082714;28;20043;-63
2023/07/10 05:58:29;;;;;;;2.55;0.80;;;17.10;99.90;;;;;;5080302;28;20509;-63
2023/07/10 06:00:58;;;;;;;3.70;2.05;;;17.20;99.90;;;;;;5079454;28;20756;-64
2023/07/10 06:03:28;;;;;;;0.97;0.87;;;17.20;99.90;;;;;;5070437;28;20602;-65
2023/07/10 06:05:58;;;;;;;1.98;1.05;;;17.30;99.90;;;;;;5077428;28;20516;-64
2023/07/10 06:08:27;;;;;;;0.90;0.75;;;17.30;99.90;;;;;;5082051;28;20059;-64
2023/07/10 06:10:54;;;;;;;1.10;1.10;;;17.40;99.90;;;;;;5077735;28;20036;-65
2023/07/10 06:13:21;;;;;;;0.77;0.77;;;17.50;99.90;;;;;;5080497;28;20036;-64
2023/07/10 06:15:51;;;;;;;0.90;0.90;;;17.50;99.90;;;;;;5077103;28;20486;-64
2023/07/10 06:18:19;;;;;;;1.37;0.87;;;17.50;99.90;;;;;;5075329;28;20048;-64
2023/07/10 06:20:57;;;;;;;1.48;0.70;;;17.60;99.90;;;;;;5075896;28;20281;-66
2023/07/10 06:23:27;;;;;;;0.85;0.63;;;17.70;99.90;;;;;;5082820;28;20055;-64
2023/07/10 06:25:54;;;;;;;3.47;1.10;;;17.70;99.90;;;;;;5076495;28;20106;-63
2023/07/10 06:28:21;;;;;;;1.77;1.17;;;17.70;99.90;;;;;;5065803;28;20036;-63
2023/07/10 06:31:00;;;;;;;3.63;1.52;;;17.60;99.90;;;;;;5079293;28;20060;-63
2023/07/10 06:33:29;;;;;;;1.23;1.13;;;17.40;99.90;;;;;;5076358;28;20037;-64
2023/07/10 06:35:56;;;;;;;5.00;1.45;;;17.40;99.90;;;;;;5079406;28;20075;-65
2023/07/10 06:38:23;;;;;;;1.35;1.00;;;17.40;99.90;;;;;;5077825;28;20537;-65
2023/07/10 06:40:51;;;;;;;1.77;1.02;;;17.30;99.90;;;;;;5078019;28;20584;-65
2023/07/10 06:43:20;;;;;;;1.60;0.70;;;17.30;99.90;;;;;;5082367;28;20040;-64
2023/07/10 06:45:47;;;;;;;4.43;1.30;;;17.30;99.90;;;;;;5080722;28;20040;-63
2023/07/10 06:48:14;;;;;;;1.05;0.90;;;17.50;99.90;;;;;;5080980;28;20032;-64
2023/07/10 06:50:51;;;;;;;2.55;0.82;;;17.50;99.90;;;;;;5079684;28;20055;-63
2023/07/10 06:53:19;;;;;;;1.25;0.98;;;17.50;99.90;;;;;;5078585;28;20063;-64
2023/07/10 06:55:57;;;;;;;1.15;1.00;;;17.50;99.90;;;;;;5077279;28;20121;-64
2023/07/10 06:58:25;;;;;;;2.45;0.85;;;17.60;99.90;;;;;;5075469;28;20036;-63
2023/07/10 07:00:52;;;;;;;3.78;2.20;;;17.60;99.90;;;;;;5080340;28;20142;-64
2023/07/10 07:03:20;;;;;;;1.23;0.90;;;17.70;99.90;;;;;;5077545;28;20490;-63
2023/07/10 07:05:48;;;;;;;2.50;1.75;;;17.60;99.90;;;;;;5080405;28;20040;-66
2023/07/10 07:08:17;;;;;;;1.40;1.10;;;17.60;99.90;;;;;;5075925;28;20502;-64
2023/07/10 07:10:46;;;;;;;2.75;0.88;;;17.70;99.90;;;;;;5077149;28;20036;-65
2023/07/10 07:13:13;;;;;;;1.75;1.08;;;17.70;99.90;;;;;;5078271;28;20066;-63
2023/07/10 07:15:40;;;;;;;1.30;1.05;;;17.70;99.90;;;;;;5080307;28;20102;-65
2023/07/10 07:18:07;;;;;;;1.35;0.90;;;17.80;99.90;;;;;;5078626;28;20745;-64
2023/07/10 07:20:34;;;;;;;3.13;1.40;;;17.90;99.90;;;;;;5077786;28;20047;-64
2023/07/10 07:23:01;;;;;;;1.67;1.42;;;17.90;99.90;;;;;;5064238;28;20048;-64
2023/07/10 07:25:29;;;;;;;2.33;1.13;;;18.00;99.90;;;;;;5076555;28;20098;-65
2023/07/10 07:27:59;;;;;;;4.80;1.13;;;18.10;99.90;;;;;;5063725;28;20390;-64
2023/07/10 07:30:30;;;;;;;1.23;1.00;;;18.20;99.90;;;;;;5074706;28;20138;-63
2023/07/10 07:32:58;;;;;;;1.13;0.85;;;18.20;99.90;;;;;;5081029;28;20042;-64
2023/07/10 07:35:25;;;;;;;1.58;1.33;;;18.20;99.90;;;;;;5074530;28;20055;-64
2023/07/10 07:37:52;;;;;;;1.73;1.15;;;18.30;99.90;;;;;;5076352;28;20547;-64
2023/07/10 07:40:19;;;;;;;3.13;1.52;;;18.30;99.90;;;;;;5074195;28;20344;-64
2023/07/10 07:42:47;;;;;;;1.00;0.80;;;18.30;99.90;;;;;;5076046;28;20048;-64
2023/07/10 07:45:15;;;;;;;3.35;2.58;;;18.30;99.90;;;;;;5076613;28;20043;-63
2023/07/10 07:47:43;;;;;;;2.20;1.42;;;18.40;99.90;;;;;;5075164;28;20048;-64
2023/07/10 07:50:10;;;;;;;1.30;1.20;;;18.40;99.90;;;;;;5078369;28;20440;-64
2023/07/10 07:52:37;;;;;;;1.90;1.08;;;18.30;99.90;;;;;;5077173;28;20038;-65
2023/07/10 07:55:07;;;;;;;2.13;1.17;;;18.30;99.90;;;;;;5077571;28;20090;-65
2023/07/10 07:57:34;;;;;;;1.30;1.20;;;18.30;99.90;;;;;;5077940;28;20567;-64
2023/07/10 08:00:02;;;;;;;1.15;0.90;;;18.20;99.90;;;;;;5078050;28;20048;-67
2023/07/10 08:02:37;;;;;;;1.02;0.93;;;18.20;99.90;;;;;;5074964;28;20044;-64
2023/07/10 08:05:05;;;;;;;1.88;1.00;;;18.40;99.90;;;;;;5077539;28;20048;-64
2023/07/10 08:07:45;;;;;;;2.35;0.90;;;18.50;99.90;;;;;;5076425;28;20055;-63
2023/07/10 08:10:12;;;;;;;4.85;1.80;;;18.40;99.90;;;;;;5081410;28;20078;-64
2023/07/10 08:12:39;;;;;;;1.52;1.17;;;18.40;99.90;;;;;;5081793;28;20442;-65
2023/07/10 08:15:06;;;;;;;1.58;0.98;;;18.40;99.90;;;;;;5076778;28;20413;-64
2023/07/10 08:17:33;;;;;;;2.10;1.63;;;18.40;99.90;;;;;;5073127;28;20071;-65
2023/07/10 08:20:00;;;;;;;1.02;1.00;;;18.50;99.90;;;;;;5079510;28;20059;-64
2023/07/10 08:22:27;;;;;;;1.58;1.27;;;18.50;99.90;;;;;;5070945;28;20071;-64
2023/07/10 08:24:54;;;;;;;1.20;1.10;;;18.40;99.90;;;;;;5080586;28;20047;-64
2023/07/10 08:27:21;;;;;;;3.55;1.40;;;18.40;99.90;;;;;;5073770;28;20802;-64
2023/07/10 08:29:47;;;;;;;1.25;1.15;;;18.40;99.90;;;;;;5078409;28;20838;-64
2023/07/10 08:32:15;;;;;;;1.40;0.93;;;18.40;99.90;;;;;;5073021;28;20506;-64
2023/07/10 08:34:42;;;;;;;0.88;0.88;;;18.40;99.90;;;;;;5079394;28;20071;-64
2023/07/10 08:37:09;;;;;;;1.27;1.17;;;18.50;99.90;;;;;;5078231;28;20048;-65
2023/07/10 08:39:35;;;;;;;1.23;1.10;;;18.60;99.90;;;;;;5073912;28;20059;-64
2023/07/10 08:42:16;;;;;;;1.02;0.82;;;18.60;99.90;;;;;;5074882;28;20371;-65
2023/07/10 08:44:48;;;;;;;2.03;1.45;;;18.70;99.90;;;;;;5081049;28;20055;-65
2023/07/10 08:47:20;;;;;;;1.55;1.20;;;18.70;99.90;;;;;;5075646;28;20043;-64
2023/07/10 08:50:01;;;;;;;1.33;1.05;;;18.70;99.90;;;;;;5076800;28;20577;-63
2023/07/10 08:52:46;;;;;;;1.58;1.20;;;18.70;99.90;;;;;;5076679;28;20132;-63
2023/07/10 08:55:18;;;;;;;2.63;1.58;;;18.70;99.90;;;;;;5077017;28;20072;-64
2023/07/10 08:57:54;;;;;;;1.38;1.27;;;18.70;99.90;;;;;;5074159;28;20133;-65
2023/07/10 09:00:24;;;;;;;1.95;1.25;;;18.80;99.90;;;;;;5072830;28;20074;-63
2023/07/10 09:03:00;;;;;;;0.98;0.90;;;18.90;99.90;;;;;;5074466;28;20051;-63
2023/07/10 09:05:29;;;;;;;1.60;1.17;;;19.00;99.90;;;;;;5076882;28;20106;-65
2023/07/10 09:08:03;;;;;;;1.52;1.02;;;19.00;99.90;;;;;;5075322;28;20131;-63
2023/07/10 09:10:43;;;;;;;1.67;1.52;;;19.10;99.90;;;;;;5062474;28;20451;-64
2023/07/10 09:13:31;;;;;;;1.80;1.10;;;18.90;99.90;;;;;;5081833;28;20044;-63
2023/07/10 09:15:59;;;;;;;2.58;1.10;;;19.00;99.90;;;;;;5077401;28;20292;-63
2023/07/10 09:18:35;;;;;;;0.93;0.82;;;19.10;99.90;;;;;;5073664;28;20127;-64
2023/07/10 09:21:15;;;;;;;1.27;1.17;;;19.30;99.90;;;;;;5078466;28;20583;-65
2023/07/10 09:23:43;;;;;;;6.88;2.42;;;19.30;99.90;;;;;;5079660;28;20043;-63
2023/07/10 09:26:17;;;;;;;3.55;1.55;;;19.30;99.90;;;;;;5078850;28;20102;-63
2023/07/10 09:28:57;;;;;;;2.15;1.88;;;19.30;99.90;;;;;;5075835;28;20462;-63
2023/07/10 09:31:53;;;;;;;4.20;1.20;;;19.40;99.90;;;;;;5073725;28;20047;-63
2023/07/10 09:34:23;;;;;;;1.23;1.10;;;19.30;99.90;;;;;;5078730;28;20051;-64
2023/07/10 09:36:52;;;;;;;4.60;1.63;;;19.50;99.90;;;;;;5074931;28;20502;-63
2023/07/10 09:39:19;;;;;;;9.18;2.10;;;19.30;99.90;;;;;;5077063;28;20072;-64
2023/07/10 09:41:47;;;;;;;1.52;1.42;;;19.40;99.90;;;;;;5077669;28;20039;-64
2023/07/10 09:44:21;;;;;;;9.48;3.05;;;19.20;99.90;;;;;;5079899;28;20040;-64
2023/07/10 09:46:49;;;;;;;4.70;2.20;;;19.40;99.90;;;;;;5072985;28;20044;-64
2023/07/10 09:49:21;;;;;;;4.90;1.30;;;19.30;99.90;;;;;;5075311;28;20044;-65
2023/07/10 09:51:59;;;;;;;4.45;1.48;;;19.30;99.90;;;;;;5075124;28;21004;-64
2023/07/10 09:54:39;;;;;;;1.23;0.98;;;19.10;99.90;;;;;;5078189;28;20113;-63
2023/07/10 09:57:17;;;;;;;1.17;1.13;;;19.20;99.90;;;;;;5075243;28;20127;-64
2023/07/10 09:59:50;;;;;;;8.13;2.25;;;19.30;99.90;;;;;;5075482;28;20067;-63
2023/07/10 10:02:21;;;;;;;1.38;1.10;;;19.40;99.90;;;;;;5073663;28;20036;-63
2023/07/10 10:05:14;;;;;;;1.25;1.15;;;19.40;99.90;;;;;;5057190;28;20052;-64
2023/07/10 10:07:46;;;;;;;2.65;1.15;;;19.50;99.90;;;;;;5070843;28;20040;-64
2023/07/10 10:10:24;;;;;;;2.30;1.40;;;19.50;99.90;;;;;;5079448;28;21263;-64
2023/07/10 10:13:30;;;;;;;1.02;0.90;;;19.50;99.90;;;;;;5073679;28;20040;-63
2023/07/10 10:16:09;;;;;;;1.58;1.17;;;19.30;99.90;;;;;;5077126;28;20794;-65
2023/07/10 10:19:08;;;;;;;1.05;0.95;;;19.40;99.90;;;;;;5076321;28;20044;-64
2023/07/10 10:21:36;;;;;;;1.85;1.40;;;19.40;99.90;;;;;;5073492;28;20705;-63
2023/07/10 10:24:07;;;;;;;3.85;2.03;;;19.50;99.90;;;;;;5076030;28;20097;-64
2023/07/10 10:26:37;;;;;;;2.15;1.13;;;19.50;99.90;;;;;;5075234;28;20153;-64
2023/07/10 10:29:24;;;;;;;1.58;0.80;;;19.60;99.90;;;;;;5072558;28;20505;-63
2023/07/10 10:32:00;;;;;;;2.08;1.08;;;19.80;99.90;;;;;;5073834;28;20543;-65
2023/07/10 10:35:09;;;;;;;1.50;1.02;;;19.90;99.90;;;;;;5077621;28;20051;-63
2023/07/10 10:37:46;;;;;;;1.15;1.05;;;20.00;99.90;;;;;;5053477;28;20094;-64
2023/07/10 10:40:46;;;;;;;1.15;0.90;;;20.00;99.90;;;;;;5078518;28;20045;-63
2023/07/10 10:43:31;;;;;;;1.00;0.90;;;20.10;99.90;;;;;;5076344;28;20047;-63
2023/07/10 10:46:38;;;;;;;2.58;0.90;;;20.30;99.90;;;;;;5079092;28;20082;-64
2023/07/10 10:49:14;;;;;;;1.70;1.33;;;20.30;99.90;;;;;;5048798;28;20068;-64
2023/07/10 10:52:12;;;;;;;0.80;0.70;;;20.30;99.90;;;;;;5079616;28;20418;-63
2023/07/10 10:54:53;;;;;;;0.88;0.82;;;20.40;99.90;;;;;;5074495;28;20093;-64
2023/07/10 10:57:48;;;;;;;1.02;1.00;;;20.20;99.90;;;;;;5081012;28;20047;-65
2023/07/10 11:00:42;;;;;;;1.67;1.20;;;19.90;99.90;;;;;;5079199;28;20072;-64
2023/07/10 11:03:45;;;;;;;1.08;0.98;;;20.00;99.90;;;;;;5075749;28;20045;-64
2023/07/10 11:06:45;;;;;;;0.77;0.77;;;20.00;99.90;;;;;;5077469;28;20036;-65
2023/07/10 11:09:24;;;;;;;1.13;1.02;;;19.90;99.90;;;;;;5074624;28;20139;-64
2023/07/10 11:11:53;;;;;;;1.00;0.95;;;20.00;99.90;;;;;;5078143;28;20056;-64
2023/07/10 11:14:21;;;;;;;1.77;1.27;;;19.90;99.90;;;;;;5077398;28;20044;-64
2023/07/10 11:16:53;;;;;;;0.82;0.75;;;19.80;99.90;;;;;;5080541;28;20097;-63
2023/07/10 11:19:27;;;;;;;1.98;1.83;;;19.80;99.90;;;;;;5082532;28;20052;-64
2023/07/10 11:21:55;;;;;;;1.67;1.08;;;19.90;99.90;;;;;;5082882;28;20514;-63
2023/07/10 11:24:32;;;;;;;1.20;1.00;;;19.90;99.90;;;;;;5079523;28;20079;-63
2023/07/10 11:27:08;;;;;;;1.27;1.17;;;20.00;99.90;;;;;;5079694;28;20036;-63
2023/07/10 11:29:44;;;;;;;1.75;1.00;;;20.10;99.90;;;;;;5078091;28;20464;-63
2023/07/10 11:32:17;;;;;;;1.52;1.00;;;20.60;99.90;;;;;;5076455;28;20437;-64
2023/07/10 11:34:50;;;;;;;1.23;1.13;;;20.20;99.90;;;;;;5073669;28;20032;-64
2023/07/10 11:37:41;;;;;;;1.50;1.23;;;20.00;99.90;;;;;;5077013;28;20043;-64
2023/07/10 11:40:41;;;;;;;1.27;1.13;;;20.10;99.90;;;;;;5077333;28;20081;-63
2023/07/10 11:43:26;;;;;;;1.80;1.38;;;20.20;99.90;;;;;;5035041;28;20082;-64
2023/07/10 11:46:03;;;;;;;1.67;1.45;;;20.40;99.90;;;;;;5079024;28;20498;-64
2023/07/10 11:48:42;;;;;;;1.88;1.00;;;20.80;99.90;;;;;;5077420;28;20072;-65
2023/07/10 11:51:30;;;;;;;1.17;1.05;;;20.50;99.90;;;;;;5078353;28;20032;-63
2023/07/10 11:54:05;;;;;;;1.13;1.02;;;20.50;99.90;;;;;;5075049;28;20044;-64
2023/07/10 11:56:33;;;;;;;1.25;1.15;;;20.40;99.90;;;;;;5080070;28;20033;-64
2023/07/10 11:59:14;;;;;;;2.45;1.00;;;20.20;99.90;;;;;;5076317;28;20605;-64
2023/07/10 12:01:42;;;;;;;1.10;1.00;;;20.20;99.90;;;;;;5080657;28;20412;-64
2023/07/10 12:04:14;;;;;;;1.40;1.20;;;20.30;99.90;;;;;;5073025;28;20128;-65
2023/07/10 12:06:45;;;;;;;1.60;1.50;;;20.60;99.90;;;;;;5080838;28;20036;-64
2023/07/10 12:09:12;;;;;;;16.77;2.05;;;20.50;99.90;;;;;;5076000;28;20140;-64
2023/07/10 12:11:40;;;;;;;1.73;1.40;;;20.30;99.90;;;;;;5079400;28;20499;-64
2023/07/10 12:14:14;;;;;;;2.38;1.00;;;20.20;99.90;;;;;;5075955;28;20047;-63
2023/07/10 12:16:50;;;;;;;1.80;1.15;;;20.40;99.90;;;;;;5076514;28;20106;-64
2023/07/10 12:19:38;;;;;;;3.92;1.77;;;20.40;99.90;;;;;;5073822;28;20033;-64
2023/07/10 12:22:21;;;;;;;3.40;1.55;;;20.20;99.90;;;;;;5070672;28;20080;-63
2023/07/10 12:24:55;;;;;;;1.48;1.00;;;20.20;99.90;;;;;;5073351;28;20447;-64
2023/07/10 12:27:23;;;;;;;1.67;1.30;;;20.60;99.90;;;;;;5077478;28;20135;-64
2023/07/10 12:29:55;;;;;;;1.05;0.95;;;20.30;99.90;;;;;;5077265;28;20524;-63
2023/07/10 12:32:24;;;;;;;1.47;1.17;;;20.30;99.90;;;;;;5074623;28;20397;-64
2023/07/10 12:34:54;;;;;;;1.27;1.17;;;20.70;99.90;;;;;;5077285;28;20048;-64
2023/07/10 12:37:22;;;;;;;2.22;1.30;;;20.90;99.90;;;;;;5078181;28;20462;-64
2023/07/10 12:39:51;;;;;;;1.60;1.50;;;20.90;99.90;;;;;;5079961;28;20448;-64
2023/07/10 12:42:37;;;;;;;1.15;1.05;;;20.60;99.90;;;;;;5078603;28;20047;-63
2023/07/10 12:45:19;;;;;;;2.45;0.90;;;20.40;99.90;;;;;;5078043;28;20048;-64
2023/07/10 12:47:55;;;;;;;1.38;1.27;;;20.50;99.90;;;;;;5076599;28;20040;-64
2023/07/10 12:50:35;;;;;;;1.27;1.02;;;20.70;99.90;;;;;;5074747;28;20123;-63
2023/07/10 12:53:06;;;;;;;1.70;1.60;;;20.90;99.90;;;;;;5076326;28;20276;-65
2023/07/10 12:55:33;;;;;;;1.58;1.00;;;20.80;99.90;;;;;;5070784;28;20040;-63
2023/07/10 12:58:03;;;;;;;1.27;1.15;;;20.60;99.90;;;;;;5077647;28;20101;-64
2023/07/10 13:00:56;;;;;;;1.97;1.77;;;20.60;99.90;;;;;;5079061;28;20533;-64
2023/07/10 13:03:31;;;;;;;5.43;1.10;;;20.60;99.90;;;;;;5081601;28;20063;-63
2023/07/10 13:06:05;;;;;;;13.32;2.58;;;20.90;99.90;;;;;;5079488;28;20051;-64
2023/07/10 13:08:39;;;;;;;2.58;1.10;;;20.80;99.90;;;;;;5077056;28;20131;-63
2023/07/10 13:11:07;;;;;;;2.00;1.40;;;20.80;99.90;;;;;;5078086;28;20032;-64
2023/07/10 13:13:39;;;;;;;1.30;1.20;;;20.90;99.90;;;;;;5075473;28;20036;-64